EJA516 KCVG-KMEM
Flight info
| Callsign | EJA516 |
|---|---|
| Flight time | 1h 7m |
| Altitude | 40000 |
| Route | CHCLL6 RAMRD BLUZZ5 |
| Aircraft | CL60/M-SBDE1E2E3FGHIJ1J4J5J7M3RWXYZ/LB1V1D1 |
Departure
| Time | 2026-05-05 12:27 |
|---|---|
| Airport | Cincinnati Northern Kentucky International Airport (KCVG) |
Arrival
| Time | 2026-05-05 13:34 |
|---|---|
| Airport | Memphis International Airport (KMEM) |
| Time | Latitude | Longitude | Altitude | Speed | Heading |
|---|---|---|---|---|---|
| 2026-05-05 12:02 | 39.04388 | -84.66250 | 859 ft | 0 kts | 252° |
| 2026-05-05 12:21 | 39.04390 | -84.66269 | 859 ft | 4 kts | 307° |
| 2026-05-05 12:21 | 39.04425 | -84.66275 | 859 ft | 6 kts | 2° |
| 2026-05-05 12:21 | 39.04431 | -84.66275 | 859 ft | 0 kts | 2° |
| 2026-05-05 12:22 | 39.04432 | -84.66275 | 859 ft | 0 kts | 2° |
| 2026-05-05 12:23 | 39.04494 | -84.66270 | 860 ft | 12 kts | 17° |
| 2026-05-05 12:24 | 39.04518 | -84.66192 | 862 ft | 10 kts | 91° |
| 2026-05-05 12:24 | 39.04518 | -84.66142 | 863 ft | 11 kts | 90° |
| 2026-05-05 12:24 | 39.04518 | -84.66032 | 865 ft | 13 kts | 90° |
| 2026-05-05 12:24 | 39.04487 | -84.65919 | 867 ft | 14 kts | 120° |
| 2026-05-05 12:25 | 39.04463 | -84.65808 | 870 ft | 13 kts | 90° |
| 2026-05-05 12:25 | 39.04464 | -84.65685 | 873 ft | 15 kts | 90° |
| 2026-05-05 12:25 | 39.04462 | -84.65528 | 877 ft | 18 kts | 89° |
| 2026-05-05 12:25 | 39.04462 | -84.65384 | 881 ft | 10 kts | 89° |
| 2026-05-05 12:26 | 39.04489 | -84.65301 | 883 ft | 11 kts | 22° |
| 2026-05-05 12:26 | 39.04578 | -84.65299 | 884 ft | 14 kts | 359° |
| 2026-05-05 12:26 | 39.04627 | -84.65376 | 882 ft | 23 kts | 269° |
| 2026-05-05 12:26 | 39.04629 | -84.66052 | 866 ft | 126 kts | 270° |
| 2026-05-05 12:27 | 39.04635 | -84.67496 | 1060 ft | 185 kts | 268° |
| 2026-05-05 12:27 | 39.04671 | -84.69133 | 2045 ft | 187 kts | 268° |
| 2026-05-05 12:27 | 39.04726 | -84.70773 | 3095 ft | 188 kts | 268° |
| 2026-05-05 12:27 | 39.04747 | -84.72433 | 4110 ft | 193 kts | 267° |
| 2026-05-05 12:28 | 39.04734 | -84.74186 | 4797 ft | 205 kts | 265° |
| 2026-05-05 12:28 | 39.04703 | -84.76058 | 5063 ft | 208 kts | 265° |
| 2026-05-05 12:28 | 39.04670 | -84.77975 | 5004 ft | 224 kts | 266° |
| 2026-05-05 12:28 | 39.04661 | -84.80071 | 5386 ft | 243 kts | 267° |
| 2026-05-05 12:29 | 39.04644 | -84.82252 | 6113 ft | 249 kts | 267° |
| 2026-05-05 12:29 | 39.04637 | -84.84529 | 6891 ft | 254 kts | 268° |
| 2026-05-05 12:29 | 39.04610 | -84.86774 | 7662 ft | 256 kts | 263° |
| 2026-05-05 12:29 | 39.04075 | -84.88950 | 8429 ft | 258 kts | 239° |
| 2026-05-05 12:30 | 39.02836 | -84.90588 | 9131 ft | 265 kts | 214° |
| 2026-05-05 12:30 | 39.01151 | -84.91631 | 9798 ft | 272 kts | 206° |
| 2026-05-05 12:30 | 38.99399 | -84.92617 | 10467 ft | 275 kts | 207° |
| 2026-05-05 12:30 | 38.97625 | -84.93626 | 10772 ft | 291 kts | 207° |
| 2026-05-05 12:31 | 38.95686 | -84.94732 | 10769 ft | 311 kts | 207° |
| 2026-05-05 12:31 | 38.93659 | -84.95883 | 10798 ft | 324 kts | 207° |
| 2026-05-05 12:31 | 38.91546 | -84.97080 | 10892 ft | 331 kts | 207° |
| 2026-05-05 12:31 | 38.89428 | -84.98278 | 11059 ft | 334 kts | 207° |
| 2026-05-05 12:32 | 38.87293 | -84.99485 | 11283 ft | 334 kts | 207° |
| 2026-05-05 12:32 | 38.85160 | -85.00691 | 11448 ft | 336 kts | 207° |
| 2026-05-05 12:32 | 38.83002 | -85.01910 | 11629 ft | 337 kts | 207° |
| 2026-05-05 12:32 | 38.80831 | -85.03136 | 11797 ft | 338 kts | 206° |
| 2026-05-05 12:33 | 38.78656 | -85.04363 | 11953 ft | 339 kts | 207° |
| 2026-05-05 12:33 | 38.76501 | -85.05579 | 12133 ft | 338 kts | 207° |
| 2026-05-05 12:33 | 38.74340 | -85.06795 | 12521 ft | 333 kts | 207° |
| 2026-05-05 12:33 | 38.72204 | -85.07999 | 12929 ft | 328 kts | 207° |
| 2026-05-05 12:34 | 38.70127 | -85.09167 | 13334 ft | 325 kts | 207° |
| 2026-05-05 12:34 | 38.68021 | -85.10352 | 13749 ft | 322 kts | 207° |
| 2026-05-05 12:34 | 38.65953 | -85.11517 | 14153 ft | 320 kts | 207° |
| 2026-05-05 12:34 | 38.63913 | -85.12664 | 14560 ft | 318 kts | 207° |
| 2026-05-05 12:35 | 38.61898 | -85.13796 | 14968 ft | 316 kts | 207° |
| 2026-05-05 12:35 | 38.59871 | -85.14934 | 15376 ft | 311 kts | 207° |
| 2026-05-05 12:35 | 38.57895 | -85.16042 | 15783 ft | 305 kts | 208° |
| 2026-05-05 12:35 | 38.55987 | -85.17112 | 16181 ft | 302 kts | 207° |
| 2026-05-05 12:36 | 38.54053 | -85.18198 | 16588 ft | 303 kts | 208° |
| 2026-05-05 12:36 | 38.52121 | -85.19282 | 16993 ft | 305 kts | 208° |
| 2026-05-05 12:36 | 38.50165 | -85.20380 | 17398 ft | 306 kts | 208° |
| 2026-05-05 12:36 | 38.48217 | -85.21471 | 17802 ft | 307 kts | 208° |
| 2026-05-05 12:37 | 38.46221 | -85.22588 | 18218 ft | 307 kts | 208° |
| 2026-05-05 12:37 | 38.44222 | -85.23707 | 18628 ft | 307 kts | 208° |
| 2026-05-05 12:37 | 38.42249 | -85.24809 | 19034 ft | 307 kts | 208° |
| 2026-05-05 12:37 | 38.40270 | -85.25916 | 19445 ft | 307 kts | 208° |
| 2026-05-05 12:38 | 38.38291 | -85.27020 | 19858 ft | 306 kts | 208° |
| 2026-05-05 12:38 | 38.36336 | -85.28110 | 20267 ft | 305 kts | 208° |
| 2026-05-05 12:38 | 38.34374 | -85.29205 | 20672 ft | 305 kts | 208° |
| 2026-05-05 12:38 | 38.32419 | -85.30294 | 21078 ft | 304 kts | 209° |
| 2026-05-05 12:39 | 38.30464 | -85.31383 | 21493 ft | 303 kts | 209° |
| 2026-05-05 12:39 | 38.28518 | -85.32468 | 21670 ft | 310 kts | 209° |
| 2026-05-05 12:39 | 38.26473 | -85.33611 | 21665 ft | 321 kts | 208° |
| 2026-05-05 12:39 | 38.24397 | -85.34768 | 21696 ft | 329 kts | 208° |
| 2026-05-05 12:40 | 38.22262 | -85.35955 | 21747 ft | 334 kts | 208° |
| 2026-05-05 12:40 | 38.20109 | -85.37150 | 21809 ft | 339 kts | 208° |
| 2026-05-05 12:40 | 38.17944 | -85.38351 | 21953 ft | 339 kts | 208° |
| 2026-05-05 12:40 | 38.15775 | -85.39555 | 22089 ft | 340 kts | 209° |
| 2026-05-05 12:41 | 38.13817 | -85.41186 | 22234 ft | 330 kts | 229° |
| 2026-05-05 12:41 | 38.12228 | -85.43349 | 22327 ft | 331 kts | 232° |
| 2026-05-05 12:41 | 38.11907 | -85.43794 | 22354 ft | 331 kts | 232° |
| 2026-05-05 12:41 | 38.11527 | -85.44324 | 22380 ft | 331 kts | 232° |
| 2026-05-05 12:42 | 38.09964 | -85.46497 | 22445 ft | 334 kts | 231° |
| 2026-05-05 12:42 | 38.08390 | -85.48650 | 22606 ft | 333 kts | 231° |
| 2026-05-05 12:42 | 38.06791 | -85.50837 | 22616 ft | 336 kts | 231° |
| 2026-05-05 12:42 | 38.05161 | -85.53065 | 22616 ft | 340 kts | 231° |
| 2026-05-05 12:43 | 38.03546 | -85.55267 | 22621 ft | 342 kts | 231° |
| 2026-05-05 12:43 | 38.01872 | -85.57548 | 22616 ft | 344 kts | 231° |
| 2026-05-05 12:43 | 38.00239 | -85.59770 | 22627 ft | 346 kts | 231° |
| 2026-05-05 12:43 | 37.98593 | -85.62007 | 22706 ft | 344 kts | 231° |
| 2026-05-05 12:44 | 37.96961 | -85.64220 | 22923 ft | 340 kts | 231° |
| 2026-05-05 12:44 | 37.95341 | -85.66421 | 23294 ft | 342 kts | 231° |
| 2026-05-05 12:44 | 37.93731 | -85.68623 | 24243 ft | 341 kts | 231° |
| 2026-05-05 12:44 | 37.92123 | -85.70826 | 25258 ft | 339 kts | 231° |
| 2026-05-05 12:45 | 37.90520 | -85.72988 | 26257 ft | 336 kts | 232° |
| 2026-05-05 12:45 | 37.88911 | -85.75156 | 27242 ft | 332 kts | 233° |
| 2026-05-05 12:45 | 37.87312 | -85.77309 | 28093 ft | 331 kts | 233° |
| 2026-05-05 12:45 | 37.85680 | -85.79514 | 28613 ft | 339 kts | 234° |
| 2026-05-05 12:46 | 37.84067 | -85.81694 | 29035 ft | 348 kts | 233° |
| 2026-05-05 12:46 | 37.82392 | -85.83951 | 29619 ft | 351 kts | 234° |
| 2026-05-05 12:46 | 37.80693 | -85.86237 | 30228 ft | 353 kts | 234° |
| 2026-05-05 12:46 | 37.78999 | -85.88514 | 30833 ft | 354 kts | 236° |
| 2026-05-05 12:47 | 37.77316 | -85.90775 | 31375 ft | 355 kts | 236° |
| 2026-05-05 12:47 | 37.75600 | -85.93078 | 31948 ft | 356 kts | 237° |
| 2026-05-05 12:47 | 37.73890 | -85.95374 | 32376 ft | 359 kts | 238° |
| 2026-05-05 12:47 | 37.72178 | -85.97671 | 32852 ft | 360 kts | 238° |
| 2026-05-05 12:48 | 37.70441 | -85.99996 | 33343 ft | 360 kts | 238° |
| 2026-05-05 12:48 | 37.68709 | -86.02316 | 33761 ft | 362 kts | 239° |
| 2026-05-05 12:48 | 37.66968 | -86.04648 | 34096 ft | 366 kts | 240° |
| 2026-05-05 12:48 | 37.65191 | -86.07037 | 34107 ft | 377 kts | 240° |
| 2026-05-05 12:49 | 37.61502 | -86.11983 | 34260 ft | 394 kts | 239° |
| 2026-05-05 12:49 | 37.59568 | -86.14563 | 34382 ft | 400 kts | 239° |
| 2026-05-05 12:49 | 37.57655 | -86.17111 | 34648 ft | 402 kts | 239° |
| 2026-05-05 12:50 | 37.55707 | -86.19702 | 34956 ft | 403 kts | 238° |
| 2026-05-05 12:50 | 37.53764 | -86.22286 | 35162 ft | 406 kts | 239° |
| 2026-05-05 12:50 | 37.51795 | -86.24902 | 35412 ft | 408 kts | 239° |
| 2026-05-05 12:50 | 37.49830 | -86.27508 | 35778 ft | 406 kts | 239° |
| 2026-05-05 12:51 | 37.47889 | -86.30072 | 36327 ft | 400 kts | 240° |
| 2026-05-05 12:51 | 37.45978 | -86.32601 | 36558 ft | 400 kts | 240° |
| 2026-05-05 12:51 | 37.44033 | -86.35184 | 36669 ft | 403 kts | 240° |
| 2026-05-05 12:51 | 37.42100 | -86.37745 | 36777 ft | 405 kts | 240° |
| 2026-05-05 12:52 | 37.40144 | -86.40334 | 36910 ft | 407 kts | 239° |
| 2026-05-05 12:52 | 37.38148 | -86.42975 | 36903 ft | 408 kts | 240° |
| 2026-05-05 12:52 | 37.34203 | -86.48179 | 36905 ft | 406 kts | 240° |
| 2026-05-05 12:53 | 37.30300 | -86.53318 | 36907 ft | 403 kts | 240° |
| 2026-05-05 12:53 | 37.26388 | -86.58466 | 36900 ft | 403 kts | 241° |
| 2026-05-05 12:54 | 37.20508 | -86.66191 | 36911 ft | 403 kts | 240° |
| 2026-05-05 12:55 | 37.16610 | -86.71302 | 36920 ft | 404 kts | 240° |
| 2026-05-05 12:55 | 37.12709 | -86.76409 | 36913 ft | 404 kts | 240° |
| 2026-05-05 12:56 | 37.08776 | -86.81548 | 36925 ft | 403 kts | 240° |
| 2026-05-05 12:56 | 37.04861 | -86.86655 | 36924 ft | 403 kts | 240° |
| 2026-05-05 12:57 | 37.00924 | -86.91787 | 36916 ft | 404 kts | 240° |
| 2026-05-05 12:57 | 36.97017 | -86.96867 | 36910 ft | 403 kts | 240° |
| 2026-05-05 12:58 | 36.93092 | -87.01968 | 36910 ft | 407 kts | 240° |
| 2026-05-05 12:58 | 36.89082 | -87.07178 | 36913 ft | 415 kts | 240° |
| 2026-05-05 12:59 | 36.84998 | -87.12465 | 36920 ft | 418 kts | 240° |
| 2026-05-05 12:59 | 36.80919 | -87.17731 | 36914 ft | 417 kts | 240° |
| 2026-05-05 13:00 | 36.74873 | -87.25519 | 36914 ft | 412 kts | 240° |
| 2026-05-05 13:01 | 36.66797 | -87.35909 | 36917 ft | 416 kts | 240° |
| 2026-05-05 13:01 | 36.62748 | -87.41099 | 36929 ft | 414 kts | 240° |
| 2026-05-05 13:02 | 36.58659 | -87.46336 | 36921 ft | 414 kts | 240° |
| 2026-05-05 13:02 | 36.54589 | -87.51543 | 36918 ft | 416 kts | 240° |
| 2026-05-05 13:03 | 36.50521 | -87.56737 | 36921 ft | 417 kts | 241° |
| 2026-05-05 13:03 | 36.46402 | -87.61986 | 36919 ft | 416 kts | 240° |
| 2026-05-05 13:04 | 36.42318 | -87.67180 | 36904 ft | 415 kts | 240° |
| 2026-05-05 13:04 | 36.38211 | -87.72400 | 36907 ft | 417 kts | 240° |
| 2026-05-05 13:05 | 36.34114 | -87.77599 | 36903 ft | 416 kts | 240° |
| 2026-05-05 13:05 | 36.32252 | -87.80273 | 36906 ft | 403 kts | 246° |
| 2026-05-05 13:05 | 36.30728 | -87.83170 | 36902 ft | 391 kts | 253° |
| 2026-05-05 13:06 | 36.28031 | -87.89069 | 36897 ft | 390 kts | 253° |
| 2026-05-05 13:06 | 36.25314 | -87.95001 | 36902 ft | 389 kts | 252° |
| 2026-05-05 13:07 | 36.22614 | -88.00878 | 36900 ft | 388 kts | 253° |
| 2026-05-05 13:07 | 36.19915 | -88.06752 | 36674 ft | 392 kts | 252° |
| 2026-05-05 13:08 | 36.18567 | -88.09673 | 36178 ft | 386 kts | 252° |
| 2026-05-05 13:08 | 36.17232 | -88.12553 | 35673 ft | 378 kts | 252° |
| 2026-05-05 13:08 | 36.15910 | -88.15410 | 35167 ft | 374 kts | 252° |
| 2026-05-05 13:08 | 36.14602 | -88.18243 | 34547 ft | 376 kts | 253° |
| 2026-05-05 13:09 | 36.13315 | -88.21038 | 33764 ft | 379 kts | 252° |
| 2026-05-05 13:09 | 36.11984 | -88.23922 | 33020 ft | 381 kts | 251° |
| 2026-05-05 13:09 | 36.10666 | -88.26765 | 32244 ft | 379 kts | 250° |
| 2026-05-05 13:09 | 36.09353 | -88.29594 | 31468 ft | 376 kts | 250° |
| 2026-05-05 13:10 | 36.08038 | -88.32425 | 30685 ft | 372 kts | 248° |
| 2026-05-05 13:10 | 36.06752 | -88.35191 | 29912 ft | 368 kts | 247° |
| 2026-05-05 13:10 | 36.05486 | -88.37913 | 29127 ft | 364 kts | 247° |
| 2026-05-05 13:10 | 36.04227 | -88.40617 | 28444 ft | 356 kts | 246° |
| 2026-05-05 13:11 | 36.03000 | -88.43243 | 27970 ft | 345 kts | 247° |
| 2026-05-05 13:11 | 36.01807 | -88.45804 | 27497 ft | 340 kts | 246° |
| 2026-05-05 13:11 | 36.00628 | -88.48336 | 27042 ft | 339 kts | 246° |
| 2026-05-05 13:11 | 35.99435 | -88.50895 | 26583 ft | 338 kts | 246° |
| 2026-05-05 13:12 | 35.98273 | -88.53386 | 26139 ft | 336 kts | 246° |
| 2026-05-05 13:12 | 35.97089 | -88.55922 | 25688 ft | 336 kts | 245° |
| 2026-05-05 13:12 | 35.95906 | -88.58454 | 25223 ft | 335 kts | 245° |
| 2026-05-05 13:12 | 35.94741 | -88.60945 | 24785 ft | 333 kts | 245° |
| 2026-05-05 13:13 | 35.93581 | -88.63424 | 24344 ft | 332 kts | 244° |
| 2026-05-05 13:13 | 35.92421 | -88.65901 | 23895 ft | 331 kts | 244° |
| 2026-05-05 13:13 | 35.91251 | -88.68395 | 23454 ft | 330 kts | 244° |
| 2026-05-05 13:13 | 35.90092 | -88.70868 | 23013 ft | 329 kts | 243° |
| 2026-05-05 13:14 | 35.88922 | -88.73359 | 22567 ft | 327 kts | 244° |
| 2026-05-05 13:14 | 35.87770 | -88.75811 | 22125 ft | 326 kts | 243° |
| 2026-05-05 13:14 | 35.86623 | -88.78249 | 21687 ft | 324 kts | 243° |
| 2026-05-05 13:14 | 35.85482 | -88.80676 | 21253 ft | 330 kts | 243° |
| 2026-05-05 13:15 | 35.84308 | -88.83176 | 20845 ft | 343 kts | 243° |
| 2026-05-05 13:15 | 35.83089 | -88.85766 | 20344 ft | 349 kts | 242° |
| 2026-05-05 13:15 | 35.81849 | -88.88306 | 19853 ft | 344 kts | 240° |
| 2026-05-05 13:15 | 35.80582 | -88.90825 | 19349 ft | 341 kts | 241° |
| 2026-05-05 13:16 | 35.79317 | -88.93342 | 18836 ft | 340 kts | 240° |
| 2026-05-05 13:16 | 35.78080 | -88.95805 | 18339 ft | 339 kts | 240° |
| 2026-05-05 13:16 | 35.76836 | -88.98274 | 17838 ft | 336 kts | 240° |
| 2026-05-05 13:16 | 35.75589 | -89.00757 | 17331 ft | 335 kts | 240° |
| 2026-05-05 13:17 | 35.74379 | -89.03162 | 16838 ft | 332 kts | 240° |
| 2026-05-05 13:17 | 35.73156 | -89.05595 | 16344 ft | 329 kts | 240° |
| 2026-05-05 13:17 | 35.71942 | -89.08008 | 15860 ft | 327 kts | 240° |
| 2026-05-05 13:17 | 35.70748 | -89.10379 | 15367 ft | 324 kts | 240° |
| 2026-05-05 13:18 | 35.69550 | -89.12759 | 14874 ft | 321 kts | 240° |
| 2026-05-05 13:18 | 35.68357 | -89.15125 | 14396 ft | 319 kts | 240° |
| 2026-05-05 13:18 | 35.67189 | -89.17442 | 13924 ft | 317 kts | 239° |
| 2026-05-05 13:18 | 35.66036 | -89.19727 | 13458 ft | 315 kts | 239° |
| 2026-05-05 13:19 | 35.64880 | -89.22019 | 12982 ft | 313 kts | 239° |
| 2026-05-05 13:19 | 35.63725 | -89.24305 | 12507 ft | 311 kts | 239° |
| 2026-05-05 13:19 | 35.62590 | -89.26553 | 12039 ft | 308 kts | 239° |
| 2026-05-05 13:19 | 35.61450 | -89.28808 | 11565 ft | 306 kts | 239° |
| 2026-05-05 13:20 | 35.60329 | -89.31023 | 11099 ft | 304 kts | 239° |
| 2026-05-05 13:20 | 35.59217 | -89.33221 | 10639 ft | 303 kts | 239° |
| 2026-05-05 13:20 | 35.58100 | -89.35424 | 10176 ft | 301 kts | 239° |
| 2026-05-05 13:20 | 35.56992 | -89.37611 | 9716 ft | 299 kts | 238° |
| 2026-05-05 13:21 | 35.55885 | -89.39796 | 9256 ft | 298 kts | 238° |
| 2026-05-05 13:21 | 35.54794 | -89.41946 | 8805 ft | 297 kts | 238° |
| 2026-05-05 13:21 | 35.53660 | -89.44105 | 8343 ft | 295 kts | 236° |
| 2026-05-05 13:21 | 35.52520 | -89.46197 | 7889 ft | 293 kts | 236° |
| 2026-05-05 13:22 | 35.51384 | -89.48285 | 7439 ft | 291 kts | 236° |
| 2026-05-05 13:22 | 35.50261 | -89.50350 | 6994 ft | 289 kts | 236° |
| 2026-05-05 13:22 | 35.49137 | -89.52416 | 6547 ft | 287 kts | 236° |
| 2026-05-05 13:22 | 35.48034 | -89.54444 | 6128 ft | 284 kts | 236° |
| 2026-05-05 13:23 | 35.46947 | -89.56445 | 5858 ft | 271 kts | 236° |
| 2026-05-05 13:23 | 35.45927 | -89.58321 | 5618 ft | 259 kts | 236° |
| 2026-05-05 13:23 | 35.44941 | -89.60133 | 5373 ft | 248 kts | 236° |
| 2026-05-05 13:23 | 35.43991 | -89.61880 | 5121 ft | 239 kts | 236° |
| 2026-05-05 13:24 | 35.43092 | -89.63532 | 4880 ft | 230 kts | 236° |
| 2026-05-05 13:24 | 35.42213 | -89.65150 | 4669 ft | 220 kts | 234° |
| 2026-05-05 13:24 | 35.41365 | -89.66708 | 4476 ft | 211 kts | 234° |
| 2026-05-05 13:24 | 35.40558 | -89.68189 | 4284 ft | 203 kts | 234° |
| 2026-05-05 13:25 | 35.39774 | -89.69606 | 4008 ft | 200 kts | 233° |
| 2026-05-05 13:25 | 35.38954 | -89.70972 | 3741 ft | 195 kts | 230° |
| 2026-05-05 13:25 | 35.38111 | -89.72259 | 3476 ft | 193 kts | 230° |
| 2026-05-05 13:25 | 35.37276 | -89.73574 | 3053 ft | 198 kts | 231° |
| 2026-05-05 13:26 | 35.36498 | -89.74961 | 2911 ft | 189 kts | 235° |
| 2026-05-05 13:26 | 35.35787 | -89.76350 | 2964 ft | 198 kts | 235° |
| 2026-05-05 13:26 | 35.34996 | -89.77834 | 2961 ft | 213 kts | 234° |
| 2026-05-05 13:26 | 35.34153 | -89.79413 | 2965 ft | 227 kts | 235° |
| 2026-05-05 13:27 | 35.33269 | -89.81065 | 2981 ft | 237 kts | 234° |
| 2026-05-05 13:27 | 35.32342 | -89.82806 | 2985 ft | 248 kts | 235° |
| 2026-05-05 13:27 | 35.31366 | -89.84642 | 2965 ft | 258 kts | 235° |
| 2026-05-05 13:27 | 35.30376 | -89.86504 | 2969 ft | 254 kts | 235° |
| 2026-05-05 13:28 | 35.29453 | -89.88246 | 2992 ft | 234 kts | 235° |
| 2026-05-05 13:28 | 35.28593 | -89.89857 | 3019 ft | 216 kts | 234° |
| 2026-05-05 13:28 | 35.27777 | -89.91392 | 2979 ft | 211 kts | 234° |
| 2026-05-05 13:28 | 35.26979 | -89.92896 | 2968 ft | 208 kts | 234° |
| 2026-05-05 13:29 | 35.26182 | -89.94398 | 2970 ft | 206 kts | 234° |
| 2026-05-05 13:29 | 35.25286 | -89.96101 | 2988 ft | 281 kts | 235° |
| 2026-05-05 13:29 | 35.23992 | -89.97687 | 3180 ft | 251 kts | 207° |
| 2026-05-05 13:29 | 35.22343 | -89.97985 | 3264 ft | 233 kts | 178° |
| 2026-05-05 13:30 | 35.20795 | -89.97819 | 3283 ft | 211 kts | 187° |
| 2026-05-05 13:30 | 35.19377 | -89.97881 | 3126 ft | 192 kts | 185° |
| 2026-05-05 13:30 | 35.18066 | -89.97862 | 2812 ft | 183 kts | 185° |
| 2026-05-05 13:30 | 35.16816 | -89.97848 | 2483 ft | 174 kts | 184° |
| 2026-05-05 13:31 | 35.15665 | -89.97823 | 2225 ft | 152 kts | 183° |
| 2026-05-05 13:31 | 35.14686 | -89.97799 | 2062 ft | 131 kts | 184° |
| 2026-05-05 13:31 | 35.13808 | -89.97781 | 1883 ft | 121 kts | 184° |
| 2026-05-05 13:31 | 35.12963 | -89.97769 | 1722 ft | 119 kts | 184° |
| 2026-05-05 13:32 | 35.12130 | -89.97755 | 1572 ft | 115 kts | 183° |
| 2026-05-05 13:32 | 35.11346 | -89.97737 | 1445 ft | 110 kts | 183° |
| 2026-05-05 13:32 | 35.10578 | -89.97722 | 1277 ft | 107 kts | 182° |
| 2026-05-05 13:32 | 35.09805 | -89.97697 | 1067 ft | 124 kts | 181° |
| 2026-05-05 13:33 | 35.08799 | -89.97673 | 1052 ft | 138 kts | 182° |
| 2026-05-05 13:33 | 35.07870 | -89.97658 | 836 ft | 131 kts | 181° |
| 2026-05-05 13:33 | 35.06950 | -89.97644 | 588 ft | 136 kts | 181° |
| 2026-05-05 13:33 | 35.05915 | -89.97626 | 429 ft | 156 kts | 180° |
| 2026-05-05 13:34 | 35.04903 | -89.97605 | 299 ft | 127 kts | 180° |
| 2026-05-05 13:34 | 35.04178 | -89.97590 | 300 ft | 72 kts | 179° |
| 2026-05-05 13:34 | 35.03825 | -89.97578 | 307 ft | 13 kts | 166° |
| 2026-05-05 13:34 | 35.03806 | -89.97495 | 306 ft | 13 kts | 92° |
| 2026-05-05 13:35 | 35.03801 | -89.97406 | 305 ft | 8 kts | 90° |
| 2026-05-05 13:35 | 35.03801 | -89.97391 | 304 ft | 0 kts | 89° |
| 2026-05-05 13:36 | 35.03801 | -89.97351 | 303 ft | 19 kts | 89° |
| 2026-05-05 13:36 | 35.03810 | -89.97135 | 297 ft | 16 kts | 74° |
| 2026-05-05 13:36 | 35.03883 | -89.97086 | 295 ft | 11 kts | 352° |
| 2026-05-05 13:36 | 35.03987 | -89.97094 | 293 ft | 17 kts | 359° |
| 2026-05-05 13:37 | 35.04133 | -89.97097 | 290 ft | 23 kts | 359° |
| 2026-05-05 13:37 | 35.04316 | -89.97095 | 287 ft | 28 kts | 10° |
| 2026-05-05 13:37 | 35.04532 | -89.97061 | 283 ft | 33 kts | 360° |
| 2026-05-05 13:37 | 35.04783 | -89.97066 | 279 ft | 37 kts | 359° |
| 2026-05-05 13:38 | 35.04910 | -89.97068 | 277 ft | 11 kts | 359° |
| 2026-05-05 13:38 | 35.04991 | -89.97034 | 276 ft | 15 kts | 62° |
| 2026-05-05 13:38 | 35.05021 | -89.96890 | 274 ft | 12 kts | 76° |
| 2026-05-05 13:38 | 35.04992 | -89.96813 | 273 ft | 5 kts | 41° |
| 2026-05-05 13:39 | 35.04997 | -89.96812 | 273 ft | 0 kts | 352° |
| 2026-05-05 13:39 | 35.04998 | -89.96812 | 273 ft | 0 kts | 352° |